createdAt,value
2019-01-16T00:00:02.022Z,-6.7
2019-01-16T00:01:11.931Z,-6.71
2019-01-16T00:02:21.993Z,-6.79
2019-01-16T00:03:31.901Z,-6.82
2019-01-16T00:04:41.817Z,-6.82
2019-01-16T00:05:51.722Z,-6.81
2019-01-16T00:07:01.626Z,-6.84
2019-01-16T00:08:11.654Z,-6.78
2019-01-16T00:09:21.573Z,-6.85
2019-01-16T00:10:31.492Z,-6.81
2019-01-16T00:11:41.406Z,-6.82
2019-01-16T00:12:51.312Z,-6.82
2019-01-16T00:14:01.280Z,-6.76
2019-01-16T00:15:11.189Z,-6.76
2019-01-16T00:16:21.101Z,-6.81
2019-01-16T00:17:31.012Z,-6.81
2019-01-16T00:18:40.925Z,-6.76
2019-01-16T00:19:50.997Z,-6.76
2019-01-16T00:21:00.916Z,-6.76
2019-01-16T00:22:10.825Z,-6.7
2019-01-16T00:23:20.736Z,-6.75
2019-01-16T00:24:30.653Z,-6.79
2019-01-16T00:25:40.666Z,-6.84
2019-01-16T00:26:50.575Z,-6.73
2019-01-16T00:28:00.226Z,-6.73
2019-01-16T00:29:10.140Z,-6.7
2019-01-16T00:30:20.047Z,-6.73
2019-01-16T00:31:30.057Z,-6.76
2019-01-16T00:32:39.969Z,-6.73
2019-01-16T00:33:49.875Z,-6.76
2019-01-16T00:34:59.785Z,-6.73
2019-01-16T00:36:09.694Z,-6.76
2019-01-16T00:37:19.697Z,-6.73
2019-01-16T00:38:29.607Z,-6.76
2019-01-16T00:39:39.521Z,-6.66
2019-01-16T00:40:49.485Z,-6.68
2019-01-16T00:41:59.390Z,-6.67
2019-01-16T00:43:09.095Z,-6.63
2019-01-16T00:44:19.003Z,-6.54
2019-01-16T00:45:28.916Z,-6.6
2019-01-16T00:46:38.828Z,-6.51
2019-01-16T00:47:48.743Z,-6.58
2019-01-16T00:48:58.648Z,-6.6
2019-01-16T00:50:08.568Z,-6.6
2019-01-16T00:51:18.497Z,-6.52
2019-01-16T00:52:28.457Z,-6.61
2019-01-16T00:53:38.365Z,-6.68
2019-01-16T00:54:48.320Z,-6.64
2019-01-16T00:55:58.227Z,-6.76
2019-01-16T00:57:08.132Z,-6.71
2019-01-16T00:58:18.043Z,-6.71
2019-01-16T00:59:28.129Z,-6.67
2019-01-16T01:00:38.431Z,-6.7
2019-01-16T01:01:48.340Z,-6.68
2019-01-16T01:02:58.257Z,-6.6
2019-01-16T01:04:08.168Z,-6.6
2019-01-16T01:05:18.083Z,-6.49
2019-01-16T01:06:28.053Z,-6.58
2019-01-16T01:07:37.966Z,-6.51
2019-01-16T01:08:47.877Z,-6.54
2019-01-16T01:09:57.786Z,-6.54
2019-01-16T01:11:07.462Z,-6.58
2019-01-16T01:12:17.386Z,-6.58
2019-01-16T01:13:27.349Z,-6.58
2019-01-16T01:14:37.253Z,-6.51
2019-01-16T01:15:47.163Z,-6.51
2019-01-16T01:16:57.079Z,-6.52
2019-01-16T01:18:06.993Z,-6.42
2019-01-16T01:19:16.908Z,-6.54
2019-01-16T01:20:26.814Z,-6.45
2019-01-16T01:21:36.226Z,-6.61
2019-01-16T01:22:46.132Z,-6.54
2019-01-16T01:23:56.905Z,-6.6
2019-01-16T01:25:06.566Z,-6.63
2019-01-16T01:26:16.473Z,-6.61
2019-01-16T01:27:26.386Z,-6.6
2019-01-16T01:28:36.309Z,-6.58
2019-01-16T01:29:46.314Z,-6.58
2019-01-16T01:30:56.229Z,-6.58
2019-01-16T01:32:06.136Z,-6.58
2019-01-16T01:33:16.068Z,-6.54
2019-01-16T01:34:26.366Z,-6.56
2019-01-16T01:35:36.269Z,-6.64
2019-01-16T01:36:46.176Z,-6.58
2019-01-16T01:37:56.138Z,-6.54
2019-01-16T01:39:06.044Z,-6.61
2019-01-16T01:40:15.954Z,-6.61
2019-01-16T01:41:25.915Z,-6.64
2019-01-16T01:42:35.821Z,-6.6
2019-01-16T01:43:45.731Z,-6.6
2019-01-16T01:44:55.644Z,-6.58
2019-01-16T01:46:05.570Z,-6.6
2019-01-16T01:47:15.576Z,-6.68
2019-01-16T01:48:25.487Z,-6.73
2019-01-16T01:49:35.397Z,-6.64
2019-01-16T01:50:45.305Z,-6.68
2019-01-16T01:51:55.215Z,-6.73
2019-01-16T01:53:04.926Z,-6.71
2019-01-16T01:54:14.842Z,-6.79
2019-01-16T01:55:24.754Z,-6.81
2019-01-16T01:56:34.664Z,-6.79
2019-01-16T01:57:44.569Z,-6.79
2019-01-16T01:58:54.480Z,-6.73
2019-01-16T02:00:04.389Z,-6.79
2019-01-16T02:01:14.299Z,-6.76
2019-01-16T02:02:24.214Z,-6.78
2019-01-16T02:03:34.124Z,-6.76
2019-01-16T02:04:44.142Z,-6.91
2019-01-16T02:05:54.046Z,-6.84
2019-01-16T02:07:03.956Z,-6.73
2019-01-16T02:08:13.865Z,-6.76
2019-01-16T02:09:23.772Z,-6.76
2019-01-16T02:10:33.781Z,-6.58
2019-01-16T02:11:43.744Z,-6.51
2019-01-16T02:12:53.653Z,-6.49
2019-01-16T02:14:03.559Z,-6.36
2019-01-16T02:15:13.468Z,-6.38
2019-01-16T02:16:23.434Z,-6.36
2019-01-16T02:17:33.351Z,-6.36
2019-01-16T02:18:49.802Z,-6.51
2019-01-16T02:19:59.709Z,-6.54
2019-01-16T02:21:09.624Z,-6.75
2019-01-16T02:22:19.601Z,-6.7
2019-01-16T02:23:29.519Z,-6.79
2019-01-16T02:24:39.445Z,-6.75
2019-01-16T02:25:49.356Z,-6.73
2019-01-16T02:26:59.268Z,-6.81
2019-01-16T02:28:09.279Z,-6.76
2019-01-16T02:29:19.187Z,-6.68
2019-01-16T02:30:29.104Z,-6.71
2019-01-16T02:31:39.030Z,-6.68
2019-01-16T02:32:48.944Z,-6.58
2019-01-16T02:33:58.956Z,-6.54
2019-01-16T02:35:08.877Z,-6.61
2019-01-16T02:36:18.795Z,-6.52
2019-01-16T02:37:28.711Z,-6.42
2019-01-16T02:38:38.623Z,-6.36
2019-01-16T02:39:48.599Z,-6.31
2019-01-16T02:40:58.573Z,-6.26
2019-01-16T02:42:08.487Z,-6.23
2019-01-16T02:43:18.404Z,-6.15
2019-01-16T02:44:28.315Z,-6.15
2019-01-16T02:45:38.324Z,-6.13
2019-01-16T02:46:48.247Z,-6.07
2019-01-16T02:47:58.259Z,-6.07
2019-01-16T02:49:08.214Z,-6.16
2019-01-16T02:50:18.141Z,-6.13
2019-01-16T02:51:28.154Z,-6.09
2019-01-16T02:52:38.070Z,-6.05
2019-01-16T02:53:47.742Z,-6.09
2019-01-16T02:54:57.650Z,-6.05
2019-01-16T02:56:07.562Z,-6.1
2019-01-16T02:57:17.573Z,-6.09
2019-01-16T02:58:27.506Z,-6.12
2019-01-16T02:59:37.439Z,-6.13
2019-01-16T03:00:47.354Z,-6.07
2019-01-16T03:01:57.272Z,-6.13
2019-01-16T03:03:07.335Z,-6.05
2019-01-16T03:04:17.241Z,-6.1
2019-01-16T03:05:27.210Z,-6.07
2019-01-16T03:06:37.123Z,-6.12
2019-01-16T03:07:47.056Z,-6.09
2019-01-16T03:08:56.714Z,-5.97
2019-01-16T03:10:06.632Z,-6.03
2019-01-16T03:11:16.540Z,-6.03
2019-01-16T03:12:26.454Z,-6.03
2019-01-16T03:13:36.376Z,-5.95
2019-01-16T03:14:46.386Z,-6
2019-01-16T03:15:56.294Z,-5.91
2019-01-16T03:17:05.960Z,-5.92
2019-01-16T03:18:15.619Z,-5.88
2019-01-16T03:19:25.545Z,-5.92
2019-01-16T03:20:35.571Z,-5.89
2019-01-16T03:21:45.484Z,-5.92
2019-01-16T03:22:55.418Z,-5.92
2019-01-16T03:24:05.330Z,-5.94
2019-01-16T03:25:15.244Z,-5.89
2019-01-16T03:26:25.270Z,-5.91
2019-01-16T03:27:35.185Z,-5.89
2019-01-16T03:28:45.104Z,-5.92
2019-01-16T03:29:55.034Z,-5.87
2019-01-16T03:31:04.987Z,-5.91
2019-01-16T03:32:15.243Z,-5.88
2019-01-16T03:33:25.192Z,-5.99
2019-01-16T03:34:35.117Z,-5.89
2019-01-16T03:35:45.030Z,-5.84
2019-01-16T03:36:54.944Z,-5.89
2019-01-16T03:38:04.984Z,-5.91
2019-01-16T03:39:14.895Z,-5.89
2019-01-16T03:40:24.861Z,-5.89
2019-01-16T03:41:34.775Z,-5.92
2019-01-16T03:42:44.698Z,-5.87
2019-01-16T03:43:54.665Z,-5.87
2019-01-16T03:45:04.581Z,-5.97
2019-01-16T03:46:14.519Z,-5.87
2019-01-16T03:47:24.445Z,-5.91
2019-01-16T03:48:34.349Z,-5.88
2019-01-16T03:49:44.362Z,-5.91
2019-01-16T03:50:54.274Z,-5.94
2019-01-16T03:52:04.187Z,-5.88
2019-01-16T03:53:14.094Z,-5.87
2019-01-16T03:54:24.026Z,-5.97
2019-01-16T03:55:34.179Z,-5.94
2019-01-16T03:56:44.106Z,-5.94
2019-01-16T03:57:54.020Z,-5.91
2019-01-16T03:59:03.928Z,-5.91
2019-01-16T04:00:13.837Z,-5.89
2019-01-16T04:01:23.753Z,-5.91
2019-01-16T04:02:33.662Z,-5.94
2019-01-16T04:03:43.579Z,-5.89
2019-01-16T04:04:53.489Z,-5.91
2019-01-16T04:06:03.405Z,-5.91
2019-01-16T04:07:13.415Z,-5.88
2019-01-16T04:08:23.326Z,-5.78
2019-01-16T04:09:33.298Z,-5.74
2019-01-16T04:10:43.231Z,-5.77
2019-01-16T04:11:53.143Z,-5.81
2019-01-16T04:13:03.153Z,-5.78
2019-01-16T04:14:13.082Z,-5.73
2019-01-16T04:15:23.018Z,-5.82
2019-01-16T04:16:32.935Z,-5.81
2019-01-16T04:17:42.852Z,-5.71
2019-01-16T04:18:52.864Z,-5.81
2019-01-16T04:20:02.781Z,-5.63
2019-01-16T04:21:12.706Z,-5.68
2019-01-16T04:22:22.634Z,-5.68
2019-01-16T04:23:32.553Z,-5.68
2019-01-16T04:24:42.563Z,-5.66
2019-01-16T04:25:52.482Z,-5.74
2019-01-16T04:27:03.291Z,-5.7
2019-01-16T04:28:13.209Z,-5.76
2019-01-16T04:29:23.139Z,-5.66
2019-01-16T04:30:33.149Z,-5.71
2019-01-16T04:31:43.056Z,-5.7
2019-01-16T04:32:52.971Z,-5.67
2019-01-16T04:34:02.887Z,-5.63
2019-01-16T04:35:12.795Z,-5.71
2019-01-16T04:36:22.810Z,-5.71
2019-01-16T04:37:32.722Z,-5.81
2019-01-16T04:38:42.633Z,-5.78
2019-01-16T04:39:52.543Z,-5.87
2019-01-16T04:41:02.459Z,-5.99
2019-01-16T04:42:12.421Z,-6.05
2019-01-16T04:43:22.331Z,-6.07
2019-01-16T04:44:32.239Z,-6.12
2019-01-16T04:45:42.177Z,-6.02
2019-01-16T04:46:52.092Z,-6
2019-01-16T04:48:02.101Z,-6
2019-01-16T04:49:12.020Z,-6.13
2019-01-16T04:50:21.935Z,-6.23
2019-01-16T04:51:31.846Z,-6.31
2019-01-16T04:52:41.768Z,-6.34
2019-01-16T04:53:51.751Z,-6.33
2019-01-16T04:55:01.720Z,-6.31
2019-01-16T04:56:11.641Z,-6.23
2019-01-16T04:57:21.553Z,-6.21
2019-01-16T04:58:31.466Z,-6.09
2019-01-16T04:59:41.481Z,-6.23
2019-01-16T05:00:51.392Z,-6.24
2019-01-16T05:02:01.318Z,-6.33
2019-01-16T05:03:10.989Z,-6.34
2019-01-16T05:04:20.897Z,-6.46
2019-01-16T05:05:30.615Z,-6.51
2019-01-16T05:06:40.523Z,-6.51
2019-01-16T05:07:50.435Z,-6.54
2019-01-16T05:09:00.347Z,-6.44
2019-01-16T05:10:10.261Z,-6.54
2019-01-16T05:11:20.020Z,-6.49
2019-01-16T05:12:31.913Z,-6.48
2019-01-16T05:13:41.828Z,-6.51
2019-01-16T05:14:51.746Z,-6.51
2019-01-16T05:16:01.410Z,-6.52
2019-01-16T05:17:11.434Z,-6.44
2019-01-16T05:18:21.363Z,-6.44
2019-01-16T05:19:38.343Z,-6.46
2019-01-16T05:20:48.710Z,-6.52
2019-01-16T05:21:58.622Z,-6.49
2019-01-16T05:23:08.631Z,-6.36
2019-01-16T05:24:18.547Z,-6.48
2019-01-16T05:25:28.466Z,-6.34
2019-01-16T05:26:38.382Z,-6.33
2019-01-16T05:27:48.310Z,-6.34
2019-01-16T05:28:58.341Z,-6.3
2019-01-16T05:30:08.254Z,-6.34
2019-01-16T05:31:18.172Z,-6.3
2019-01-16T05:32:28.087Z,-6.23
2019-01-16T05:33:38.005Z,-6.21
2019-01-16T05:34:47.988Z,-6.24
2019-01-16T05:35:57.901Z,-6.26
2019-01-16T05:37:07.822Z,-6.27
2019-01-16T05:38:17.483Z,-6.33
2019-01-16T05:39:27.392Z,-6.24
2019-01-16T05:40:37.412Z,-6.28
2019-01-16T05:41:47.341Z,-6.3
2019-01-16T05:42:57.264Z,-6.33
2019-01-16T05:44:07.186Z,-6.38
2019-01-16T05:45:17.474Z,-6.33
2019-01-16T05:46:27.494Z,-6.31
2019-01-16T05:47:37.401Z,-6.34
2019-01-16T05:48:47.324Z,-6.34
2019-01-16T05:49:57.231Z,-6.31
2019-01-16T05:51:07.150Z,-6.39
2019-01-16T05:52:17.163Z,-6.39
2019-01-16T05:53:27.135Z,-6.48
2019-01-16T05:54:37.046Z,-6.48
2019-01-16T05:55:46.959Z,-6.48
2019-01-16T05:56:56.901Z,-6.46
2019-01-16T05:58:06.867Z,-6.51
2019-01-16T05:59:16.791Z,-6.38
2019-01-16T06:00:26.705Z,-6.51
2019-01-16T06:01:36.616Z,-6.46
2019-01-16T06:02:46.534Z,-6.41
2019-01-16T06:03:56.540Z,-6.39
2019-01-16T06:05:06.445Z,-6.34
2019-01-16T06:06:16.355Z,-6.34
2019-01-16T06:07:26.274Z,-6.36
2019-01-16T06:08:36.188Z,-6.34
2019-01-16T06:09:46.162Z,-6.38
2019-01-16T06:10:56.081Z,-6.33
2019-01-16T06:12:06.002Z,-6.3
2019-01-16T06:13:15.906Z,-6.3
2019-01-16T06:14:26.027Z,-6.36
2019-01-16T06:15:35.991Z,-6.34
2019-01-16T06:16:45.899Z,-6.33
2019-01-16T06:17:55.817Z,-6.34
2019-01-16T06:19:05.718Z,-6.38
2019-01-16T06:20:15.630Z,-6.39
2019-01-16T06:21:25.636Z,-6.39
2019-01-16T06:22:35.552Z,-6.33
2019-01-16T06:23:45.462Z,-6.38
2019-01-16T06:24:55.375Z,-6.34
2019-01-16T06:26:05.420Z,-6.34
2019-01-16T06:27:15.477Z,-6.31
2019-01-16T06:28:25.139Z,-6.34
2019-01-16T06:29:35.058Z,-6.34
2019-01-16T06:30:44.971Z,-6.31
2019-01-16T06:31:54.882Z,-6.24
2019-01-16T06:33:04.838Z,-6.23
2019-01-16T06:34:14.748Z,-6.34
2019-01-16T06:35:24.666Z,-6.2
2019-01-16T06:36:34.580Z,-6.24
2019-01-16T06:37:44.500Z,-6.23
2019-01-16T06:38:54.209Z,-6.21
2019-01-16T06:40:04.122Z,-6.24
2019-01-16T06:41:14.039Z,-6.27
2019-01-16T06:42:23.951Z,-6.27
2019-01-16T06:43:33.923Z,-6.27
2019-01-16T06:44:43.931Z,-6.3
2019-01-16T06:45:53.858Z,-6.26
2019-01-16T06:47:03.764Z,-6.36
2019-01-16T06:48:13.676Z,-6.42
2019-01-16T06:49:23.584Z,-6.45
2019-01-16T06:50:33.592Z,-6.46
2019-01-16T06:51:43.502Z,-6.6
2019-01-16T06:52:53.413Z,-6.68
2019-01-16T06:54:03.329Z,-6.66
2019-01-16T06:55:13.248Z,-6.66
2019-01-16T06:56:23.207Z,-6.67
2019-01-16T06:57:33.939Z,-6.7
2019-01-16T06:58:43.851Z,-6.79
2019-01-16T06:59:53.761Z,-6.84
2019-01-16T07:01:03.670Z,-6.82
2019-01-16T07:02:13.679Z,-6.79
2019-01-16T07:03:23.589Z,-6.79
2019-01-16T07:04:33.496Z,-6.7
2019-01-16T07:05:43.403Z,-6.58
2019-01-16T07:06:53.315Z,-6.51
2019-01-16T07:08:03.326Z,-6.54
2019-01-16T07:09:13.237Z,-6.41
2019-01-16T07:10:23.146Z,-6.31
2019-01-16T07:11:33.063Z,-6.18
2019-01-16T07:12:42.976Z,-6.24
2019-01-16T07:13:52.888Z,-6.21
2019-01-16T07:15:02.863Z,-6.02
2019-01-16T07:16:12.768Z,-6.05
2019-01-16T07:17:22.681Z,-5.92
2019-01-16T07:18:32.588Z,-5.94
2019-01-16T07:19:42.648Z,-5.81
2019-01-16T07:20:52.558Z,-5.74
2019-01-16T07:22:02.471Z,-5.7
2019-01-16T07:23:12.379Z,-5.67
2019-01-16T07:24:22.038Z,-5.67
2019-01-16T07:25:32.050Z,-5.7
2019-01-16T07:26:41.963Z,-5.78
2019-01-16T07:27:51.873Z,-5.85
2019-01-16T07:29:01.782Z,-5.88
2019-01-16T07:30:11.729Z,-5.95
2019-01-16T07:31:21.640Z,-5.78
2019-01-16T07:32:31.555Z,-5.94
2019-01-16T07:33:41.467Z,-5.92
2019-01-16T07:34:51.374Z,-5.74
2019-01-16T07:36:01.298Z,-5.82
2019-01-16T07:37:11.269Z,-5.87
2019-01-16T07:38:21.178Z,-5.89
2019-01-16T07:39:30.834Z,-5.97
2019-01-16T07:40:40.744Z,-6.06
2019-01-16T07:41:50.659Z,-6.23
2019-01-16T07:43:00.688Z,-6.24
2019-01-16T07:44:10.596Z,-6.3
2019-01-16T07:45:20.561Z,-6.23
2019-01-16T07:46:30.469Z,-6.26
2019-01-16T07:47:40.378Z,-6.26
2019-01-16T07:48:50.395Z,-6.24
2019-01-16T07:50:00.302Z,-6.1
2019-01-16T07:51:10.214Z,-6.16
2019-01-16T07:52:20.124Z,-6.02
2019-01-16T07:53:30.038Z,-6.02
2019-01-16T07:54:40.017Z,-6
2019-01-16T07:55:50.028Z,-6
2019-01-16T07:56:59.977Z,-6.02
2019-01-16T07:58:09.892Z,-6.02
2019-01-16T07:59:26.515Z,-5.97
2019-01-16T08:00:36.487Z,-5.92
2019-01-16T08:01:46.407Z,-5.92
2019-01-16T08:02:56.315Z,-5.95
2019-01-16T08:04:07.309Z,-5.85
2019-01-16T08:05:17.219Z,-5.99
2019-01-16T08:06:27.180Z,-5.81
2019-01-16T08:07:37.092Z,-5.81
2019-01-16T08:08:46.744Z,-5.85
2019-01-16T08:09:56.651Z,-5.84
2019-01-16T08:11:06.562Z,-5.77
2019-01-16T08:12:16.572Z,-5.82
2019-01-16T08:13:26.488Z,-5.84
2019-01-16T08:14:36.412Z,-5.71
2019-01-16T08:15:46.322Z,-5.71
2019-01-16T08:16:56.229Z,-5.74
2019-01-16T08:18:06.295Z,-5.67
2019-01-16T08:19:16.207Z,-5.67
2019-01-16T08:20:29.993Z,-5.7
2019-01-16T08:21:39.904Z,-5.66
2019-01-16T08:22:49.813Z,-5.64
2019-01-16T08:23:59.871Z,-5.6
2019-01-16T08:25:09.785Z,-5.67
2019-01-16T08:26:19.692Z,-5.64
2019-01-16T08:27:29.602Z,-5.7
2019-01-16T08:28:39.510Z,-5.64
2019-01-16T08:29:49.513Z,-5.56
2019-01-16T08:30:59.427Z,-5.59
2019-01-16T08:32:09.358Z,-5.59
2019-01-16T08:33:19.269Z,-5.63
2019-01-16T08:34:29.191Z,-5.49
2019-01-16T08:35:39.148Z,-5.5
2019-01-16T08:36:49.065Z,-5.45
2019-01-16T08:37:58.975Z,-5.52
2019-01-16T08:39:08.889Z,-5.58
2019-01-16T08:40:18.795Z,-5.52
2019-01-16T08:41:28.927Z,-5.59
2019-01-16T08:42:38.841Z,-5.58
2019-01-16T08:43:48.752Z,-5.55
2019-01-16T08:44:58.665Z,-5.53
2019-01-16T08:46:08.586Z,-5.56
2019-01-16T08:47:18.603Z,-5.58
2019-01-16T08:48:28.512Z,-5.58
2019-01-16T08:49:38.449Z,-5.58
2019-01-16T08:50:48.364Z,-5.56
2019-01-16T08:51:58.285Z,-5.46
2019-01-16T08:53:08.247Z,-5.52
2019-01-16T08:54:18.177Z,-5.5
2019-01-16T08:55:28.108Z,-5.59
2019-01-16T08:56:38.030Z,-5.56
2019-01-16T08:57:47.945Z,-5.59
2019-01-16T08:58:57.855Z,-5.59
2019-01-16T09:00:07.773Z,-5.6
2019-01-16T09:01:17.691Z,-5.59
2019-01-16T09:02:27.603Z,-5.52
2019-01-16T09:03:37.512Z,-5.59
2019-01-16T09:04:47.516Z,-5.49
2019-01-16T09:05:57.422Z,-5.58
2019-01-16T09:07:07.334Z,-5.59
2019-01-16T09:08:17.253Z,-5.46
2019-01-16T09:09:27.160Z,-5.49
2019-01-16T09:10:37.119Z,-5.5
2019-01-16T09:11:47.968Z,-5.49
2019-01-16T09:12:57.903Z,-5.48
2019-01-16T09:14:07.816Z,-5.5
2019-01-16T09:15:17.728Z,-5.55
2019-01-16T09:16:27.733Z,-5.5
2019-01-16T09:17:37.637Z,-5.53
2019-01-16T09:18:47.650Z,-5.55
2019-01-16T09:19:57.559Z,-5.38
2019-01-16T09:21:07.473Z,-5.45
2019-01-16T09:22:17.394Z,-5.45
2019-01-16T09:23:27.312Z,-5.41
2019-01-16T09:24:37.219Z,-5.41
2019-01-16T09:25:47.139Z,-5.41
2019-01-16T09:26:57.050Z,-5.43
2019-01-16T09:28:07.059Z,-5.5
2019-01-16T09:29:16.972Z,-5.41
2019-01-16T09:30:27.265Z,-5.45
2019-01-16T09:31:37.010Z,-5.45
2019-01-16T09:32:46.920Z,-5.41
2019-01-16T09:33:56.877Z,-5.38
2019-01-16T09:35:06.785Z,-5.28
2019-01-16T09:36:16.700Z,-5.41
2019-01-16T09:37:26.612Z,-5.3
2019-01-16T09:38:36.590Z,-5.3
2019-01-16T09:39:46.384Z,-5.31
2019-01-16T09:40:56.336Z,-5.25
2019-01-16T09:42:06.398Z,-5.3
2019-01-16T09:43:17.646Z,-5.28
2019-01-16T09:44:27.785Z,-5.3
2019-01-16T09:45:37.911Z,-5.23
2019-01-16T09:46:47.878Z,-5.25
2019-01-16T09:47:57.637Z,-5.19
2019-01-16T09:49:07.603Z,-5.23
2019-01-16T09:50:17.375Z,-5.27
2019-01-16T09:51:27.598Z,-5.16
2019-01-16T09:52:37.720Z,-5.32
2019-01-16T09:53:47.763Z,-5.16
2019-01-16T09:54:58.602Z,-5.21
2019-01-16T09:56:08.544Z,-5.28
2019-01-16T09:57:18.270Z,-5.16
2019-01-16T09:58:28.165Z,-5.17
2019-01-16T09:59:38.257Z,-5.19
2019-01-16T10:00:48.323Z,-5.23
2019-01-16T10:01:58.324Z,-5.16
2019-01-16T10:03:08.524Z,-5.16
2019-01-16T10:04:18.449Z,-5.09
2019-01-16T10:05:28.387Z,-5.09
2019-01-16T10:06:38.297Z,-5.1
2019-01-16T10:07:47.964Z,-5.1
2019-01-16T10:08:58.021Z,-5.12
2019-01-16T10:10:07.927Z,-5.09
2019-01-16T10:11:17.891Z,-5.08
2019-01-16T10:12:27.806Z,-5
2019-01-16T10:13:37.719Z,-4.98
2019-01-16T10:14:47.698Z,-4.97
2019-01-16T10:15:57.688Z,-4.92
2019-01-16T10:17:07.606Z,-4.94
2019-01-16T10:18:17.518Z,-4.94
2019-01-16T10:19:27.435Z,-4.91
2019-01-16T10:20:37.509Z,-4.91
2019-01-16T10:22:00.771Z,-5.02
2019-01-16T10:23:10.683Z,-4.95
2019-01-16T10:24:20.594Z,-4.94
2019-01-16T10:25:30.555Z,-4.92
2019-01-16T10:26:40.612Z,-4.95
2019-01-16T10:27:50.561Z,-4.81
2019-01-16T10:29:00.475Z,-4.74
2019-01-16T10:30:10.436Z,-4.9
2019-01-16T10:31:20.450Z,-4.91
2019-01-16T10:32:30.377Z,-4.95
2019-01-16T10:33:40.287Z,-5.01
2019-01-16T10:34:50.202Z,-5.01
2019-01-16T10:36:00.119Z,-5.02
2019-01-16T10:37:10.033Z,-5.21
2019-01-16T10:38:19.946Z,-5.19
2019-01-16T10:39:29.853Z,-5.16
2019-01-16T10:40:39.781Z,-5.19
2019-01-16T10:41:49.701Z,-5.3
2019-01-16T10:42:59.757Z,-5.28
2019-01-16T10:44:09.668Z,-5.28
2019-01-16T10:45:20.976Z,-5.27
2019-01-16T10:46:30.888Z,-5.28
2019-01-16T10:47:40.800Z,-5.19
2019-01-16T10:48:54.776Z,-5.2
2019-01-16T10:50:04.441Z,-5.27
2019-01-16T10:51:14.097Z,-5.16
2019-01-16T10:52:24.010Z,-5.19
2019-01-16T10:53:33.922Z,-5.13
2019-01-16T10:54:43.837Z,-5.2
2019-01-16T10:55:53.748Z,-5.21
2019-01-16T10:57:03.659Z,-5.17
2019-01-16T10:58:13.569Z,-5.16
2019-01-16T10:59:23.481Z,-5.1
2019-01-16T11:00:33.518Z,-5.12
2019-01-16T11:01:43.435Z,-5.13
2019-01-16T11:02:53.346Z,-5.09
2019-01-16T11:04:03.255Z,-5.1
2019-01-16T11:05:13.373Z,-4.97
2019-01-16T11:06:23.398Z,-5.01
2019-01-16T11:07:33.372Z,-5.05
2019-01-16T11:08:43.280Z,-4.97
2019-01-16T11:09:53.188Z,-4.95
2019-01-16T11:11:03.097Z,-5.06
2019-01-16T11:12:21.366Z,-4.95
2019-01-16T11:13:31.552Z,-4.88
2019-01-16T11:14:41.681Z,-4.9
2019-01-16T11:15:51.592Z,-4.97
2019-01-16T11:17:01.779Z,-4.95
2019-01-16T11:18:11.690Z,-4.9
2019-01-16T11:19:21.596Z,-4.84
2019-01-16T11:20:31.512Z,-4.83
2019-01-16T11:21:41.419Z,-4.87
2019-01-16T11:22:51.328Z,-4.71
2019-01-16T11:24:01.339Z,-4.73
2019-01-16T11:25:11.255Z,-4.73
2019-01-16T11:26:21.167Z,-4.77
2019-01-16T11:27:31.127Z,-4.77
2019-01-16T11:28:41.037Z,-4.7
2019-01-16T11:29:51.055Z,-4.56
2019-01-16T11:31:00.975Z,-4.56
2019-01-16T11:32:10.905Z,-4.52
2019-01-16T11:33:20.563Z,-4.41
2019-01-16T11:34:30.469Z,-4.42
2019-01-16T11:35:40.174Z,-4.37
2019-01-16T11:36:49.836Z,-4.44
2019-01-16T11:37:59.745Z,-4.35
2019-01-16T11:39:09.655Z,-4.27
2019-01-16T11:40:19.580Z,-4.23
2019-01-16T11:41:29.488Z,-4.22
2019-01-16T11:42:39.402Z,-4.26
2019-01-16T11:43:49.313Z,-4.2
2019-01-16T11:44:59.220Z,-4.17
2019-01-16T11:46:09.197Z,-4.19
2019-01-16T11:47:19.209Z,-4.19
2019-01-16T11:48:29.122Z,-4.06
2019-01-16T11:49:39.181Z,-4.08
2019-01-16T11:50:49.100Z,-4.06
2019-01-16T11:51:59.017Z,-4.06
2019-01-16T11:53:09.075Z,-4.09
2019-01-16T11:54:19.871Z,-4.09
2019-01-16T11:55:29.804Z,-4.02
2019-01-16T11:56:39.710Z,-4.04
2019-01-16T11:57:49.638Z,-4.06
2019-01-16T11:58:59.596Z,-4.05
2019-01-16T12:00:09.513Z,-3.98
2019-01-16T12:01:19.421Z,-4.01
2019-01-16T12:02:29.331Z,-3.96
2019-01-16T12:03:46.018Z,-3.91
2019-01-16T12:04:56.043Z,-3.88
2019-01-16T12:06:05.966Z,-3.94
2019-01-16T12:07:15.886Z,-3.99
2019-01-16T12:08:25.865Z,-4.01
2019-01-16T12:09:35.783Z,-3.98
2019-01-16T12:10:45.853Z,-4.05
2019-01-16T12:11:55.767Z,-4.02
2019-01-16T12:13:05.682Z,-4.01
2019-01-16T12:14:15.594Z,-4.04
2019-01-16T12:15:25.506Z,-4.09
2019-01-16T12:16:35.266Z,-4.12
2019-01-16T12:17:45.187Z,-4.04
2019-01-16T12:18:55.096Z,-4.05
2019-01-16T12:20:05.008Z,-3.95
2019-01-16T12:21:14.925Z,-4.04
2019-01-16T12:22:31.715Z,-3.98
2019-01-16T12:23:41.626Z,-4.02
2019-01-16T12:24:51.548Z,-4.06
2019-01-16T12:26:07.976Z,-3.94
2019-01-16T12:27:18.127Z,-3.94
2019-01-16T12:28:28.087Z,-3.91
2019-01-16T12:29:37.996Z,-3.94
2019-01-16T12:30:47.917Z,-3.95
2019-01-16T12:31:57.839Z,-3.87
2019-01-16T12:33:07.755Z,-3.94
2019-01-16T12:34:17.772Z,-3.88
2019-01-16T12:35:27.683Z,-3.88
2019-01-16T12:36:37.595Z,-3.91
2019-01-16T12:37:47.511Z,-3.91
2019-01-16T12:38:57.428Z,-3.85
2019-01-16T12:40:08.902Z,-3.8
2019-01-16T12:41:18.822Z,-3.84
2019-01-16T12:42:28.745Z,-3.81
2019-01-16T12:43:38.655Z,-3.85
2019-01-16T12:44:48.565Z,-3.85
2019-01-16T12:45:58.575Z,-3.75
2019-01-16T12:47:08.489Z,-3.75
2019-01-16T12:48:18.400Z,-3.8
2019-01-16T12:49:28.322Z,-3.8
2019-01-16T12:50:38.297Z,-3.83
2019-01-16T12:51:48.259Z,-3.87
2019-01-16T12:52:59.183Z,-3.9
2019-01-16T12:54:09.095Z,-3.88
2019-01-16T12:55:19.004Z,-3.87
2019-01-16T12:56:28.916Z,-3.71
2019-01-16T12:57:38.876Z,-3.74
2019-01-16T12:58:48.786Z,-3.75
2019-01-16T12:59:58.697Z,-3.71
2019-01-16T13:01:08.448Z,-3.64
2019-01-16T13:02:18.361Z,-3.74
2019-01-16T13:03:28.420Z,-3.71
2019-01-16T13:04:38.369Z,-3.71
2019-01-16T13:05:48.333Z,-3.71
2019-01-16T13:06:58.259Z,-3.69
2019-01-16T13:08:08.178Z,-3.71
2019-01-16T13:09:18.242Z,-3.74
2019-01-16T13:10:28.196Z,-3.77
2019-01-16T13:11:38.116Z,-3.75
2019-01-16T13:12:47.777Z,-3.8
2019-01-16T13:13:57.689Z,-3.95
2019-01-16T13:15:07.614Z,-3.88
2019-01-16T13:16:17.526Z,-3.91
2019-01-16T13:17:27.440Z,-3.94
2019-01-16T13:18:37.348Z,-3.96
2019-01-16T13:19:47.256Z,-4.02
2019-01-16T13:20:57.175Z,-3.84
2019-01-16T13:22:07.095Z,-3.94
2019-01-16T13:23:17.007Z,-3.91
2019-01-16T13:24:26.924Z,-3.88
2019-01-16T13:25:36.841Z,-3.91
2019-01-16T13:26:46.959Z,-3.84
2019-01-16T13:27:57.319Z,-3.88
2019-01-16T13:29:07.244Z,-3.91
2019-01-16T13:30:17.155Z,-3.85
2019-01-16T13:31:27.073Z,-3.9
2019-01-16T13:32:37.090Z,-4.04
2019-01-16T13:33:46.998Z,-3.88
2019-01-16T13:34:56.912Z,-4.04
2019-01-16T13:36:06.587Z,-3.95
2019-01-16T13:37:16.498Z,-4.04
2019-01-16T13:38:26.509Z,-3.99
2019-01-16T13:39:36.417Z,-3.91
2019-01-16T13:40:46.328Z,-3.9
2019-01-16T13:41:56.240Z,-3.94
2019-01-16T13:43:06.148Z,-3.91
2019-01-16T13:44:16.201Z,-3.95
2019-01-16T13:45:26.120Z,-3.88
2019-01-16T13:46:36.032Z,-3.88
2019-01-16T13:47:45.944Z,-3.9
2019-01-16T13:48:57.724Z,-3.94
2019-01-16T13:50:07.446Z,-4.06
2019-01-16T13:51:17.355Z,-4.01
2019-01-16T13:52:27.264Z,-3.99
2019-01-16T13:53:37.181Z,-4.02
2019-01-16T13:54:47.096Z,-4.12
2019-01-16T13:55:57.107Z,-4.05
2019-01-16T13:57:07.022Z,-4.05
2019-01-16T13:58:16.956Z,-4.12
2019-01-16T13:59:26.959Z,-4.2
2019-01-16T14:00:36.870Z,-4.17
2019-01-16T14:01:46.786Z,-4.17
2019-01-16T14:02:56.697Z,-4.17
2019-01-16T14:04:06.610Z,-4.26
2019-01-16T14:05:16.521Z,-4.22
2019-01-16T14:06:26.435Z,-4.23
2019-01-16T14:07:36.444Z,-4.19
2019-01-16T14:08:46.360Z,-4.3
2019-01-16T14:09:56.269Z,-4.27
2019-01-16T14:11:06.181Z,-4.33
2019-01-16T14:12:16.093Z,-4.3
2019-01-16T14:13:26.520Z,-4.23
2019-01-16T14:14:36.430Z,-4.23
2019-01-16T14:15:46.367Z,-4.22
2019-01-16T14:16:56.276Z,-4.16
2019-01-16T14:18:06.185Z,-4.26
2019-01-16T14:19:16.147Z,-4.26
2019-01-16T14:20:26.057Z,-4.19
2019-01-16T14:21:35.964Z,-4.14
2019-01-16T14:22:45.870Z,-4.17
2019-01-16T14:23:55.779Z,-4.12
2019-01-16T14:25:05.739Z,-4.14
2019-01-16T14:26:15.652Z,-4.2
2019-01-16T14:27:25.562Z,-4.16
2019-01-16T14:28:35.467Z,-4.22
2019-01-16T14:29:45.387Z,-4.42
2019-01-16T14:30:55.347Z,-4.41
2019-01-16T14:32:05.260Z,-4.56
2019-01-16T14:33:15.172Z,-4.56
2019-01-16T14:34:24.834Z,-4.44
2019-01-16T14:35:34.740Z,-4.37
2019-01-16T14:36:44.699Z,-4.37
2019-01-16T14:37:54.607Z,-4.27
2019-01-16T14:39:04.514Z,-4.16
2019-01-16T14:40:14.443Z,-4.17
2019-01-16T14:41:24.358Z,-4.12
2019-01-16T14:42:34.325Z,-4.08
2019-01-16T14:43:44.234Z,-4.08
2019-01-16T14:44:54.151Z,-4.09
2019-01-16T14:46:04.067Z,-4.01
2019-01-16T14:47:13.976Z,-4.09
2019-01-16T14:48:23.935Z,-4.05
2019-01-16T14:49:33.848Z,-4.04
2019-01-16T14:50:43.761Z,-4.01
2019-01-16T14:51:59.581Z,-3.98
2019-01-16T14:53:09.630Z,-3.98
2019-01-16T14:54:19.639Z,-3.95
2019-01-16T14:55:29.551Z,-3.99
2019-01-16T14:56:39.487Z,-3.95
2019-01-16T14:57:49.397Z,-4.01
2019-01-16T14:58:59.304Z,-3.94
2019-01-16T15:00:09.314Z,-4.04
2019-01-16T15:01:19.002Z,-3.99
2019-01-16T15:02:28.963Z,-4.02
2019-01-16T15:03:38.873Z,-4.26
2019-01-16T15:04:48.779Z,-4.24